Time;durP1;ratioP1;P1;durP2;ratioP2;P2;SDS_P1;SDS_P2;PMS_P1;PMS_P2;Temp;Humidity;BMP_temperature;BMP_pressure;BME280_temperature;BME280_humidity;BME280_pressure;Samples;Min_cycle;Max_cycle;Signal;HPM_P1;HPM_P2
2022/06/06 00:01:50;;;;;;;1.55;1.45;;;;;;;17.08;79.78;98693.16;4152762;28;20304;-54
2022/06/06 00:03:52;;;;;;;1.35;1.25;;;;;;;17.00;80.21;98697.34;4150209;28;20221;-55
2022/06/06 00:05:53;;;;;;;1.42;1.13;;;;;;;16.99;80.34;98690.16;4137492;28;20237;-53
2022/06/06 00:07:55;;;;;;;1.98;1.73;;;;;;;16.98;80.20;98683.00;4136689;28;20194;-54
2022/06/06 00:09:57;;;;;;;2.53;1.40;;;;;;;16.99;80.10;98679.91;4117975;28;20628;-54
2022/06/06 00:12:00;;;;;;;1.45;1.23;;;;;;;16.99;80.35;98673.59;4134646;28;20843;-53
2022/06/06 00:14:03;;;;;;;1.35;1.25;;;;;;;16.96;80.29;98674.13;4150528;28;20244;-55
2022/06/06 00:16:05;;;;;;;1.63;1.42;;;;;;;16.94;80.45;98676.38;4134116;28;20239;-53
2022/06/06 00:18:07;;;;;;;7.07;1.70;;;;;;;17.01;80.23;98671.34;4142449;28;20627;-54
2022/06/06 00:20:09;;;;;;;1.60;1.50;;;;;;;16.96;80.37;98667.81;4134194;28;20205;-55
2022/06/06 00:22:11;;;;;;;1.50;1.20;;;;;;;17.09;79.65;98673.50;4133526;28;20209;-55
2022/06/06 00:24:13;;;;;;;1.48;1.30;;;;;;;17.00;80.22;98672.47;4133492;28;20214;-55
2022/06/06 00:26:15;;;;;;;2.10;1.70;;;;;;;17.02;80.09;98661.94;4153749;28;20201;-54
2022/06/06 00:28:17;;;;;;;2.45;2.25;;;;;;;16.96;80.21;98662.28;4141765;28;20248;-55
2022/06/06 00:30:19;;;;;;;1.65;1.55;;;;;;;17.02;80.34;98657.25;4136567;28;20225;-55
2022/06/06 00:34:51;;;;;;;1.15;1.05;;;;;;;17.02;80.05;98661.94;4153958;28;20587;-55
2022/06/06 00:36:53;;;;;;;2.05;1.27;;;;;;;17.05;79.96;98664.13;4139290;28;20214;-53
2022/06/06 00:38:55;;;;;;;1.90;1.80;;;;;;;17.04;80.02;98668.00;4139004;28;20584;-54
2022/06/06 00:40:57;;;;;;;2.88;2.05;;;;;;;16.96;80.35;98671.38;4154837;28;20209;-54
2022/06/06 00:43:00;;;;;;;1.75;1.50;;;;;;;16.98;80.32;98666.41;4138085;28;20225;-53
2022/06/06 00:45:20;;;;;;;1.63;1.52;;;;;;;16.99;80.38;98655.03;4123893;28;20231;-56
2022/06/06 00:47:28;;;;;;;4.35;2.78;;;;;;;16.93;80.82;98658.94;4154870;28;21220;-55
2022/06/06 00:49:33;;;;;;;1.50;1.40;;;;;;;16.88;80.76;98649.88;4136936;28;20208;-55
2022/06/06 00:51:37;;;;;;;1.77;1.67;;;;;;;17.02;80.49;98657.25;4140266;28;20215;-55
2022/06/06 00:53:48;;;;;;;1.60;1.50;;;;;;;16.99;80.39;98657.00;4125473;28;20233;-54
2022/06/06 00:55:55;;;;;;;1.52;1.15;;;;;;;16.99;80.46;98651.47;4134809;28;20697;-53
2022/06/06 00:58:05;;;;;;;2.67;2.15;;;;;;;16.97;80.54;98653.66;4135065;28;20214;-55
2022/06/06 01:00:09;;;;;;;3.08;2.65;;;;;;;16.94;80.66;98654.25;4131605;28;20209;-55
2022/06/06 01:02:12;;;;;;;2.83;1.80;;;;;;;16.83;81.23;98652.66;4117670;28;20214;-55
2022/06/06 01:04:15;;;;;;;1.85;1.70;;;;;;;16.81;81.53;98652.13;4133520;28;20212;-55
2022/06/06 01:06:18;;;;;;;3.03;2.30;;;;;;;16.79;81.52;98651.59;4153285;28;20197;-55
2022/06/06 01:08:21;;;;;;;2.92;2.13;;;;;;;16.82;81.39;98647.44;4133534;28;20990;-55
2022/06/06 01:10:22;;;;;;;2.45;2.25;;;;;;;16.81;81.52;98638.31;4151931;28;20718;-54
2022/06/06 01:12:24;;;;;;;2.80;2.53;;;;;;;16.78;82.03;98649.97;4133847;28;20467;-55
2022/06/06 01:14:29;;;;;;;2.67;2.47;;;;;;;16.80;81.60;98647.72;4137786;28;20245;-54
2022/06/06 01:16:58;;;;;;;2.22;2.03;;;;;;;16.86;81.14;98635.53;4155988;28;20208;-54
2022/06/06 01:19:32;;;;;;;2.45;2.25;;;;;;;16.90;80.88;98631.06;4137832;28;20198;-55
2022/06/06 01:22:05;;;;;;;1.67;1.50;;;;;;;16.87;80.96;98630.81;4156167;28;20209;-56
2022/06/06 01:24:29;;;;;;;2.22;1.88;;;;;;;16.87;80.99;98631.63;4137044;28;20755;-56
2022/06/06 01:26:31;;;;;;;2.60;2.28;;;;;;;16.86;80.79;98630.00;4153424;28;20215;-55
2022/06/06 01:28:52;;;;;;;2.10;1.90;;;;;;;16.85;81.16;98641.31;4135677;28;20503;-54
2022/06/06 01:30:57;;;;;;;7.03;2.30;;;;;;;16.80;81.17;98631.13;4142145;28;20202;-54
2022/06/06 01:33:01;;;;;;;3.10;2.22;;;;;;;16.80;81.32;98636.66;4152559;28;20228;-54
2022/06/06 01:35:04;;;;;;;2.70;2.42;;;;;;;16.70;81.59;98631.19;4122258;28;20602;-55
2022/06/06 01:37:42;;;;;;;2.95;2.72;;;;;;;16.73;81.76;98627.03;4135291;28;20552;-55
2022/06/06 01:39:44;;;;;;;2.67;2.42;;;;;;;16.77;81.48;98626.16;4151648;28;20209;-54
2022/06/06 01:41:51;;;;;;;4.95;2.47;;;;;;;16.78;81.25;98627.84;4120157;28;20256;-54
2022/06/06 01:44:13;;;;;;;2.97;2.72;;;;;;;16.79;81.32;98626.72;4133771;28;20225;-54
2022/06/06 01:46:20;;;;;;;2.45;2.25;;;;;;;16.82;81.13;98634.44;4136328;28;20202;-60
2022/06/06 01:48:26;;;;;;;2.00;1.90;;;;;;;16.76;81.86;98618.19;4148081;28;20231;-55
2022/06/06 01:50:29;;;;;;;2.25;2.05;;;;;;;16.79;81.19;98623.97;4153410;28;20209;-54
2022/06/06 01:52:49;;;;;;;2.85;2.38;;;;;;;16.77;81.16;98612.34;4136651;28;20660;-54
2022/06/06 01:54:55;;;;;;;3.28;3.03;;;;;;;16.83;80.72;98619.50;4119328;28;20265;-55
2022/06/06 01:56:59;;;;;;;5.45;2.70;;;;;;;16.83;81.00;98611.19;4153777;28;20718;-54
2022/06/06 01:59:01;;;;;;;2.75;2.45;;;;;;;16.70;81.77;98606.31;4135460;28;20726;-54
2022/06/06 02:01:03;;;;;;;2.45;2.25;;;;;;;16.75;81.27;98611.00;4153150;28;20204;-55
2022/06/06 02:03:09;;;;;;;1.95;1.85;;;;;;;16.82;81.20;98604.03;4137477;28;20276;-55
2022/06/06 02:05:13;;;;;;;2.25;2.00;;;;;;;16.81;81.13;98596.84;4135800;28;20261;-53
2022/06/06 02:07:15;;;;;;;4.05;2.78;;;;;;;16.81;81.38;98598.78;4121118;28;20209;-55
2022/06/06 02:09:16;;;;;;;3.15;2.92;;;;;;;16.78;81.34;98608.50;4136915;28;20203;-55
2022/06/06 02:11:18;;;;;;;2.85;2.65;;;;;;;16.82;81.49;98606.78;4136710;28;20659;-55
2022/06/06 02:13:20;;;;;;;3.25;2.13;;;;;;;16.82;81.41;98601.25;4138871;28;20267;-56
2022/06/06 02:15:24;;;;;;;2.15;2.00;;;;;;;16.81;81.12;98604.31;4150593;28;20240;-54
2022/06/06 02:17:25;;;;;;;3.67;1.83;;;;;;;16.82;81.03;98609.56;4137518;28;20205;-54
2022/06/06 02:19:27;;;;;;;4.30;2.33;;;;;;;16.78;81.03;98614.03;4150212;28;20322;-54
2022/06/06 02:21:29;;;;;;;2.53;1.92;;;;;;;16.78;81.00;98611.25;4137693;28;20213;-54
2022/06/06 02:23:30;;;;;;;3.13;2.65;;;;;;;16.75;81.30;98602.72;4132677;28;20229;-55
2022/06/06 02:25:33;;;;;;;2.30;2.10;;;;;;;16.81;80.97;98607.06;4154475;28;20267;-55
2022/06/06 02:27:36;;;;;;;2.15;1.60;;;;;;;16.83;80.95;98608.44;4149807;28;20204;-56
2022/06/06 02:29:38;;;;;;;2.22;2.03;;;;;;;16.75;80.91;98611.81;4151988;28;20213;-54
2022/06/06 02:31:40;;;;;;;1.75;1.65;;;;;;;16.77;80.95;98608.78;4135882;28;20213;-55
2022/06/06 02:33:42;;;;;;;1.83;1.67;;;;;;;16.77;80.71;98609.59;4137408;28;20940;-54
2022/06/06 02:35:44;;;;;;;1.52;1.42;;;;;;;16.73;81.16;98608.53;4139684;28;20225;-55
2022/06/06 02:37:47;;;;;;;2.85;2.35;;;;;;;16.72;81.56;98606.03;4137988;28;20303;-54
2022/06/06 02:39:48;;;;;;;2.13;1.92;;;;;;;16.64;81.85;98610.22;4152862;28;20217;-54
2022/06/06 02:41:50;;;;;;;3.80;2.45;;;;;;;16.64;81.71;98610.22;4142952;28;20202;-54
2022/06/06 02:43:52;;;;;;;6.30;2.35;;;;;;;16.65;81.56;98613.84;4154561;28;20224;-54
2022/06/06 02:45:55;;;;;;;2.50;2.30;;;;;;;16.71;81.14;98605.22;4155399;28;20192;-54
2022/06/06 02:47:58;;;;;;;4.82;1.90;;;;;;;16.73;81.38;98605.75;4142510;28;20289;-55
2022/06/06 02:50:00;;;;;;;2.45;2.25;;;;;;;16.78;81.08;98600.22;4135486;28;20214;-55
2022/06/06 02:52:03;;;;;;;4.32;2.17;;;;;;;16.80;81.11;98600.72;4151993;28;20246;-54
2022/06/06 02:54:05;;;;;;;2.70;2.33;;;;;;;16.81;81.16;98604.31;4137080;28;20257;-54
2022/06/06 02:56:07;;;;;;;2.50;2.30;;;;;;;16.73;81.61;98605.75;4137359;28;20714;-54
2022/06/06 02:58:11;;;;;;;4.97;2.85;;;;;;;16.51;82.57;98610.91;4136800;28;20267;-54
2022/06/06 03:00:19;;;;;;;2.90;2.60;;;;;;;16.67;82.08;98608.84;4152210;28;20243;-54
2022/06/06 03:02:20;;;;;;;2.35;2.15;;;;;;;16.55;82.59;98606.44;4134680;28;20206;-55
2022/06/06 03:04:22;;;;;;;3.40;2.83;;;;;;;16.49;82.75;98599.28;4126545;28;20202;-55
2022/06/06 03:06:59;;;;;;;3.03;2.63;;;;;;;16.56;82.46;98605.31;4153227;28;20250;-55
2022/06/06 03:09:41;;;;;;;2.28;2.05;;;;;;;16.49;82.60;98607.56;4125805;28;20200;-54
2022/06/06 03:11:59;;;;;;;2.42;2.22;;;;;;;16.52;82.71;98607.00;4154979;28;20208;-55
2022/06/06 03:14:19;;;;;;;2.70;2.47;;;;;;;16.61;82.15;98602.53;4126270;28;20276;-54
2022/06/06 03:21:42;;;;;;;2.88;2.58;;;;;;;16.55;82.12;98611.16;4153551;28;20607;-54
2022/06/06 03:24:13;;;;;;;3.17;2.97;;;;;;;16.58;81.84;98611.41;4135946;28;20257;-53
2022/06/06 03:26:20;;;;;;;2.45;2.00;;;;;;;16.55;81.59;98606.44;4135658;28;20209;-55
2022/06/06 03:28:45;;;;;;;2.00;1.83;;;;;;;16.50;81.77;98602.88;4133843;28;20217;-57
2022/06/06 03:30:58;;;;;;;2.65;2.28;;;;;;;16.52;81.64;98598.72;4150918;28;20201;-55
2022/06/06 03:33:28;;;;;;;3.40;2.55;;;;;;;16.59;81.24;98596.47;4133839;28;20225;-55
2022/06/06 03:35:46;;;;;;;2.53;2.25;;;;;;;16.57;81.25;98600.63;4118110;28;20285;-54
2022/06/06 03:38:06;;;;;;;2.47;2.28;;;;;;;16.59;81.15;98607.53;4149743;28;20227;-56
2022/06/06 03:40:12;;;;;;;2.05;1.83;;;;;;;16.60;80.97;98609.16;4133280;28;20647;-55
2022/06/06 03:42:36;;;;;;;2.88;2.40;;;;;;;16.67;80.77;98612.44;4137328;28;20205;-55
2022/06/06 03:45:06;;;;;;;2.38;2.10;;;;;;;16.63;80.94;98607.78;4134948;28;20276;-54
2022/06/06 03:47:21;;;;;;;1.95;1.77;;;;;;;16.64;81.18;98610.22;4136914;28;20359;-56
2022/06/06 03:49:51;;;;;;;3.97;2.17;;;;;;;16.63;80.82;98618.81;4151649;28;20262;-55
2022/06/06 03:52:02;;;;;;;2.15;2.05;;;;;;;16.63;80.90;98621.59;4138353;28;20214;-56
2022/06/06 03:54:13;;;;;;;4.03;2.25;;;;;;;16.73;80.45;98614.06;4152087;28;20224;-56
2022/06/06 03:56:27;;;;;;;2.35;2.15;;;;;;;16.73;80.57;98619.59;4152241;28;20676;-55
2022/06/06 03:58:31;;;;;;;2.80;2.15;;;;;;;16.57;80.82;98623.53;4135303;28;20216;-56
2022/06/06 04:00:35;;;;;;;1.95;1.75;;;;;;;16.57;81.02;98619.97;4142866;28;20205;-56
2022/06/06 04:02:37;;;;;;;2.58;2.38;;;;;;;16.63;80.56;98625.16;4120268;28;20678;-56
2022/06/06 04:04:39;;;;;;;2.30;2.10;;;;;;;16.66;80.58;98630.13;4139517;28;20201;-54
2022/06/06 04:06:41;;;;;;;2.72;1.88;;;;;;;16.65;81.07;98628.47;4129862;28;20206;-55
2022/06/06 04:08:43;;;;;;;2.08;1.90;;;;;;;16.59;81.05;98624.09;4157158;28;20196;-54
2022/06/06 04:11:22;;;;;;;2.45;2.25;;;;;;;16.60;81.11;98631.28;4140197;28;20220;-55
2022/06/06 04:13:37;;;;;;;2.13;1.90;;;;;;;16.73;80.46;98633.41;4138689;28;20257;-55
2022/06/06 04:16:03;;;;;;;3.05;2.75;;;;;;;16.73;80.29;98635.31;4157416;28;20228;-54
2022/06/06 04:18:15;;;;;;;2.03;1.83;;;;;;;16.53;80.56;98630.75;4136967;28;20213;-55
2022/06/06 04:20:17;;;;;;;2.25;2.05;;;;;;;16.55;80.67;98628.53;4145705;28;20737;-56
2022/06/06 04:22:27;;;;;;;3.33;3.03;;;;;;;16.57;80.55;98626.31;4136556;28;20268;-55
2022/06/06 04:24:52;;;;;;;2.40;2.28;;;;;;;16.58;80.58;98627.97;4153999;28;20706;-54
2022/06/06 04:27:20;;;;;;;4.22;2.60;;;;;;;16.57;80.48;98628.25;4137052;28;20230;-56
2022/06/06 04:29:39;;;;;;;2.10;1.90;;;;;;;16.59;80.35;98632.38;4137366;28;20205;-55
2022/06/06 04:31:44;;;;;;;2.47;2.28;;;;;;;16.62;80.33;98623.50;4138965;28;20205;-56
2022/06/06 04:33:54;;;;;;;2.75;2.13;;;;;;;16.62;80.35;98626.28;4138866;28;20264;-55
2022/06/06 04:36:19;;;;;;;2.85;2.45;;;;;;;16.55;80.48;98625.78;4136375;28;20273;-56
2022/06/06 04:38:29;;;;;;;4.07;2.15;;;;;;;16.64;80.48;98635.09;4138648;28;20206;-56
2022/06/06 04:40:37;;;;;;;3.30;2.78;;;;;;;16.54;80.70;98624.13;4145742;28;20213;-55
2022/06/06 04:42:44;;;;;;;2.45;2.25;;;;;;;16.49;80.73;98618.63;4136893;28;20238;-56
2022/06/06 04:44:56;;;;;;;2.58;2.38;;;;;;;16.49;80.98;98621.38;4137336;28;20205;-55
2022/06/06 04:47:39;;;;;;;3.58;2.40;;;;;;;16.51;80.92;98627.47;4153736;28;20232;-54
2022/06/06 04:49:41;;;;;;;2.53;2.30;;;;;;;16.50;80.95;98636.84;4101166;28;20766;-55
2022/06/06 04:51:45;;;;;;;2.85;2.28;;;;;;;16.52;80.86;98640.16;4097279;28;20212;-55
2022/06/06 04:53:50;;;;;;;2.10;1.90;;;;;;;16.53;81.33;98646.50;4094501;28;20235;-55
2022/06/06 04:55:53;;;;;;;2.67;2.47;;;;;;;16.59;80.77;98639.84;4156621;28;20586;-56
2022/06/06 04:57:56;;;;;;;2.92;2.20;;;;;;;16.61;80.79;98643.97;4158215;28;20208;-57
2022/06/06 04:59:58;;;;;;;2.40;2.20;;;;;;;16.65;80.44;98645.06;4154769;28;20264;-56
2022/06/06 05:02:02;;;;;;;3.53;3.22;;;;;;;16.68;80.52;98643.66;4125377;28;20207;-54
2022/06/06 05:04:04;;;;;;;4.18;2.00;;;;;;;16.69;80.44;98646.13;4147305;28;20673;-55
2022/06/06 05:06:31;;;;;;;2.97;2.15;;;;;;;16.70;80.58;98653.31;4162043;28;20228;-54
2022/06/06 05:08:45;;;;;;;2.53;2.10;;;;;;;16.72;80.05;98653.03;4159439;28;20236;-54
2022/06/06 05:10:56;;;;;;;2.15;2.03;;;;;;;16.72;80.14;98653.88;4143856;28;20198;-55
2022/06/06 05:13:10;;;;;;;2.45;2.20;;;;;;;16.68;80.39;98654.72;4157080;28;20227;-54
2022/06/06 05:15:23;;;;;;;2.63;2.42;;;;;;;16.69;80.15;98659.94;4146689;28;20683;-55
2022/06/06 05:17:39;;;;;;;2.13;1.92;;;;;;;16.76;79.89;98657.69;4138984;28;20612;-54
2022/06/06 05:19:59;;;;;;;2.63;2.42;;;;;;;16.71;79.92;98649.44;4156265;28;20217;-56
2022/06/06 05:22:30;;;;;;;2.47;2.28;;;;;;;16.79;79.60;98650.75;4137878;28;20265;-55
2022/06/06 05:24:42;;;;;;;3.22;2.38;;;;;;;16.74;79.54;98662.69;4140189;28;20300;-55
2022/06/06 05:26:59;;;;;;;2.72;2.53;;;;;;;16.78;79.40;98677.59;4137483;28;20197;-56
2022/06/06 05:29:33;;;;;;;2.13;1.92;;;;;;;16.69;79.57;98668.22;4140008;28;20300;-55
2022/06/06 05:32:05;;;;;;;1.90;1.77;;;;;;;16.70;79.35;98663.56;4106259;28;20636;-54
2022/06/06 05:34:25;;;;;;;3.30;1.95;;;;;;;16.69;79.61;98668.22;4145610;28;20641;-54
2022/06/06 05:37:01;;;;;;;3.08;2.88;;;;;;;16.78;79.01;98672.06;4138147;28;20217;-54
2022/06/06 05:39:31;;;;;;;2.55;2.33;;;;;;;16.81;79.11;98676.16;4153264;28;20204;-54
2022/06/06 05:41:43;;;;;;;3.20;2.90;;;;;;;16.93;78.62;98680.25;4123600;28;20219;-54
2022/06/06 05:44:24;;;;;;;3.25;2.95;;;;;;;16.91;78.02;98679.72;4157643;28;20255;-54
2022/06/06 05:46:37;;;;;;;2.50;2.30;;;;;;;16.88;77.92;98680.28;4097431;28;20624;-55
2022/06/06 05:48:45;;;;;;;2.17;1.98;;;;;;;17.00;77.79;98678.81;4136044;28;20213;-56
2022/06/06 05:50:57;;;;;;;2.22;2.03;;;;;;;16.98;77.44;98678.28;4138266;28;20268;-54
2022/06/06 05:53:18;;;;;;;3.05;2.53;;;;;;;17.09;77.21;98685.41;4134617;28;20654;-55
2022/06/06 05:55:22;;;;;;;2.53;2.10;;;;;;;17.07;77.07;98681.25;4138541;28;20205;-54
2022/06/06 05:57:33;;;;;;;2.80;2.60;;;;;;;17.02;77.30;98684.06;4135745;28;20198;-55
2022/06/06 06:00:09;;;;;;;2.17;2.08;;;;;;;17.01;76.83;98682.41;4154068;28;20208;-55
2022/06/06 06:02:39;;;;;;;2.10;1.90;;;;;;;16.91;76.75;98688.03;4136136;28;20194;-55
2022/06/06 06:05:14;;;;;;;3.97;2.65;;;;;;;17.03;77.12;98674.63;4152658;28;20200;-56
2022/06/06 06:07:51;;;;;;;1.60;1.50;;;;;;;17.19;76.74;98690.03;4108039;28;20431;-56
2022/06/06 06:10:05;;;;;;;2.55;2.10;;;;;;;17.05;76.81;98681.53;4153848;28;20228;-54
2022/06/06 06:12:19;;;;;;;5.07;2.83;;;;;;;16.98;76.66;98687.69;4142730;28;20210;-54
2022/06/06 06:14:35;;;;;;;2.22;2.03;;;;;;;17.05;76.67;98689.03;4153715;28;20209;-54
2022/06/06 06:16:42;;;;;;;2.95;2.55;;;;;;;16.99;76.71;98685.44;4134491;28;20253;-55
2022/06/06 06:18:48;;;;;;;2.70;2.50;;;;;;;17.00;76.91;98687.09;4151990;28;20206;-56
2022/06/06 06:21:21;;;;;;;3.08;2.78;;;;;;;17.10;76.71;98702.78;4152653;28;20264;-54
2022/06/06 06:23:26;;;;;;;3.00;2.80;;;;;;;17.09;76.58;98701.16;4137261;28;20287;-55
2022/06/06 06:25:28;;;;;;;2.38;2.05;;;;;;;17.08;76.79;98705.03;4151195;28;20200;-54
2022/06/06 06:27:34;;;;;;;2.53;2.33;;;;;;;17.08;76.58;98696.72;4142551;28;20256;-54
2022/06/06 06:29:36;;;;;;;3.03;2.45;;;;;;;17.19;76.77;98701.91;4135385;28;20206;-55
2022/06/06 06:32:16;;;;;;;2.03;1.92;;;;;;;17.12;76.15;98706.94;4136219;28;20263;-54
2022/06/06 06:34:50;;;;;;;2.38;1.90;;;;;;;17.06;76.41;98710.03;4130188;28;20208;-54
2022/06/06 06:37:06;;;;;;;2.88;2.67;;;;;;;16.98;76.45;98708.69;4055752;29;20243;-55
2022/06/06 06:39:29;;;;;;;2.45;2.25;;;;;;;17.09;76.47;98712.22;4149961;28;20741;-54
2022/06/06 06:42:04;;;;;;;2.30;2.08;;;;;;;16.96;76.58;98706.50;4135412;28;20212;-55
2022/06/06 06:44:30;;;;;;;2.50;2.30;;;;;;;17.02;76.09;98711.69;4154653;28;21232;-55
2022/06/06 06:46:40;;;;;;;2.28;2.15;;;;;;;16.95;76.23;98711.19;4135637;28;20198;-54
2022/06/06 06:48:47;;;;;;;3.30;1.77;;;;;;;17.01;75.99;98718.34;4144482;28;20251;-55
2022/06/06 06:51:15;;;;;;;2.85;2.55;;;;;;;17.03;76.29;98721.66;4138049;28;20209;-54
2022/06/06 06:53:36;;;;;;;2.40;1.90;;;;;;;17.08;75.88;98720.81;4152223;28;20719;-54
2022/06/06 06:56:06;;;;;;;2.33;2.10;;;;;;;16.97;75.92;98725.56;4135770;28;20256;-54
2022/06/06 06:58:25;;;;;;;1.95;1.77;;;;;;;17.04;76.04;98724.13;4139962;28;20201;-56
2022/06/06 07:00:32;;;;;;;1.70;1.60;;;;;;;16.97;75.19;98720.03;4137742;28;20271;-54
2022/06/06 07:10:23;;;;;;;2.28;2.08;;;;;;;16.92;75.54;98722.84;4154880;28;20309;-54
2022/06/06 07:12:34;;;;;;;1.48;1.35;;;;;;;16.90;75.48;98729.78;4137868;28;20236;-54
2022/06/06 07:14:42;;;;;;;2.13;1.40;;;;;;;16.99;75.40;98728.88;4134777;28;20206;-54
2022/06/06 07:16:45;;;;;;;1.58;1.48;;;;;;;17.07;75.54;98717.22;4133477;28;20221;-54
2022/06/06 07:18:51;;;;;;;2.65;2.45;;;;;;;16.98;75.60;98720.88;4155070;28;20205;-55
2022/06/06 07:20:53;;;;;;;1.50;1.40;;;;;;;17.08;75.22;98720.81;4136068;28;20197;-54
2022/06/06 07:23:02;;;;;;;1.95;1.75;;;;;;;17.06;75.38;98718.31;4142157;28;20260;-55
2022/06/06 07:25:05;;;;;;;1.70;1.60;;;;;;;17.07;75.47;98719.97;4137441;28;20212;-55
2022/06/06 07:27:09;;;;;;;2.05;1.92;;;;;;;17.14;75.39;98720.47;4153802;28;20205;-55
2022/06/06 07:29:15;;;;;;;2.53;2.33;;;;;;;17.21;75.07;98726.50;4153488;28;20205;-54
2022/06/06 07:32:02;;;;;;;3.58;2.22;;;;;;;17.32;74.26;98717.03;4137464;28;20556;-55
2022/06/06 07:34:22;;;;;;;3.22;1.95;;;;;;;17.39;73.89;98717.56;4153612;28;20248;-54
2022/06/06 07:36:50;;;;;;;2.33;2.13;;;;;;;17.75;72.86;98718.88;4135439;28;20279;-54
2022/06/06 07:39:41;;;;;;;1.65;1.55;;;;;;;17.87;72.81;98713.78;4138789;28;20210;-56
2022/06/06 07:42:02;;;;;;;1.83;1.73;;;;;;;18.22;70.73;98716.19;4137081;28;20210;-55
2022/06/06 07:44:22;;;;;;;1.63;1.52;;;;;;;18.62;69.96;98710.19;4156553;28;20623;-55
2022/06/06 07:46:24;;;;;;;1.48;1.30;;;;;;;18.61;68.37;98714.91;4140966;28;20205;-54
2022/06/06 07:48:47;;;;;;;1.77;1.20;;;;;;;18.62;68.48;98710.19;4154272;28;20216;-55
2022/06/06 07:51:12;;;;;;;9.50;1.42;;;;;;;18.95;67.33;98709.16;4139337;28;20217;-54
2022/06/06 07:53:30;;;;;;;2.33;1.33;;;;;;;19.05;66.91;98714.59;4137438;28;20244;-56
2022/06/06 07:55:49;;;;;;;1.65;1.38;;;;;;;19.11;66.21;98707.84;4121896;28;20206;-53
2022/06/06 07:58:03;;;;;;;1.67;1.58;;;;;;;18.96;66.95;98710.81;4155331;28;20243;-55
2022/06/06 08:00:28;;;;;;;1.80;1.70;;;;;;;19.12;66.19;98712.25;4133879;28;20650;-54
2022/06/06 08:02:51;;;;;;;2.65;1.45;;;;;;;19.39;66.04;98704.91;4142019;28;20850;-54
2022/06/06 08:05:11;;;;;;;1.20;1.10;;;;;;;19.32;65.40;98698.09;4152105;28;20209;-55
2022/06/06 08:07:42;;;;;;;4.40;1.40;;;;;;;19.44;65.79;98701.25;4159245;28;20200;-54
2022/06/06 08:10:19;;;;;;;1.48;1.27;;;;;;;19.31;66.17;98702.00;4153370;28;20210;-54
2022/06/06 08:12:51;;;;;;;1.17;1.17;;;;;;;19.07;66.75;98699.28;4144276;28;20263;-54
2022/06/06 08:15:14;;;;;;;1.63;1.38;;;;;;;18.79;67.17;98699.41;4138240;28;20206;-55
2022/06/06 08:17:38;;;;;;;2.50;1.75;;;;;;;18.74;67.62;98707.81;4144318;28;21125;-54
2022/06/06 08:19:45;;;;;;;1.15;1.05;;;;;;;18.48;68.04;98710.09;4137875;28;20591;-55
2022/06/06 08:21:49;;;;;;;1.40;1.30;;;;;;;18.55;68.44;98704.16;4140106;28;20205;-54
2022/06/06 08:23:53;;;;;;;1.35;1.02;;;;;;;18.61;68.46;98691.91;4138388;28;20296;-55
2022/06/06 08:25:55;;;;;;;1.23;1.13;;;;;;;18.74;68.25;98699.47;4138601;28;20198;-55
2022/06/06 08:27:59;;;;;;;1.40;1.30;;;;;;;18.70;67.93;98704.81;4154484;28;20232;-54
2022/06/06 08:30:01;;;;;;;2.88;1.40;;;;;;;18.75;68.12;98699.19;4144138;28;20208;-55
2022/06/06 08:32:05;;;;;;;0.80;0.80;;;;;;;18.91;67.73;98708.13;4155127;28;20201;-55
2022/06/06 08:34:07;;;;;;;1.00;0.80;;;;;;;18.86;66.68;98705.41;4136463;28;20265;-55
2022/06/06 08:36:18;;;;;;;1.03;0.97;;;;;;;18.63;67.02;98696.03;4138288;28;20202;-54
2022/06/06 08:38:33;;;;;;;0.85;0.85;;;;;;;18.71;66.88;98692.59;4137074;28;20289;-54
2022/06/06 08:40:59;;;;;;;1.00;0.90;;;;;;;18.96;66.80;98691.38;4138329;28;20265;-55
2022/06/06 08:43:30;;;;;;;1.27;1.17;;;;;;;18.90;66.71;98696.19;4135524;28;20269;-55
2022/06/06 08:45:52;;;;;;;1.13;0.90;;;;;;;19.47;66.61;98695.91;4131117;28;20208;-55
2022/06/06 08:48:23;;;;;;;1.30;1.20;;;;;;;19.75;65.79;98696.78;4134425;28;20206;-55
2022/06/06 08:50:57;;;;;;;1.52;1.42;;;;;;;19.51;65.62;98685.00;4155215;28;20815;-55
2022/06/06 08:53:21;;;;;;;0.95;0.82;;;;;;;19.47;65.91;98700.63;4076005;29;20788;-55
2022/06/06 08:55:44;;;;;;;4.47;1.20;;;;;;;19.50;65.60;98694.44;4154711;28;20673;-55
2022/06/06 08:58:10;;;;;;;1.48;1.38;;;;;;;19.35;66.43;98703.03;4138650;28;20320;-55
2022/06/06 09:00:20;;;;;;;1.20;1.10;;;;;;;19.13;66.20;98700.03;4143109;28;20213;-55
2022/06/06 09:02:48;;;;;;;1.25;1.15;;;;;;;19.18;66.00;98691.63;4135282;28;20206;-53
2022/06/06 09:04:59;;;;;;;1.17;0.80;;;;;;;19.30;66.74;98692.00;4137012;28;20214;-55
2022/06/06 09:07:25;;;;;;;1.35;1.20;;;;;;;19.49;66.82;98687.25;4137613;28;20209;-56
2022/06/06 09:09:42;;;;;;;0.77;0.75;;;;;;;19.79;66.04;98675.63;4135522;28;20664;-55
2022/06/06 09:12:02;;;;;;;1.00;0.98;;;;;;;19.97;65.48;98674.75;4140252;28;20205;-55
2022/06/06 09:14:28;;;;;;;1.10;1.00;;;;;;;20.03;64.96;98676.25;4136192;28;20229;-55
2022/06/06 09:16:45;;;;;;;2.08;1.45;;;;;;;20.32;64.61;98680.44;4137379;28;20999;-54
2022/06/06 09:19:11;;;;;;;1.77;1.33;;;;;;;20.38;63.76;98683.94;4141084;28;20205;-55
2022/06/06 09:21:22;;;;;;;1.45;1.30;;;;;;;20.12;63.94;98674.47;4124639;28;20615;-52
2022/06/06 09:23:51;;;;;;;1.70;1.08;;;;;;;20.16;63.77;98678.25;4136355;28;20242;-51
2022/06/06 09:26:10;;;;;;;1.05;0.90;;;;;;;20.07;64.02;98677.34;4135348;28;20206;-51
2022/06/06 09:28:14;;;;;;;1.20;1.10;;;;;;;19.88;64.13;98679.34;4136998;28;20209;-53
2022/06/06 09:30:50;;;;;;;1.17;1.08;;;;;;;19.80;64.12;98689.22;4137645;28;20260;-51
2022/06/06 09:33:01;;;;;;;2.58;0.95;;;;;;;19.61;64.65;98690.38;4135775;28;20345;-52
2022/06/06 09:35:16;;;;;;;1.48;1.10;;;;;;;19.76;64.60;98687.31;4137399;28;20218;-51
2022/06/06 09:37:48;;;;;;;0.70;0.65;;;;;;;20.14;63.76;98677.75;4139688;28;20265;-52
2022/06/06 09:40:07;;;;;;;1.15;1.10;;;;;;;20.27;63.40;98676.94;4154112;28;20216;-53
2022/06/06 09:42:37;;;;;;;0.93;0.93;;;;;;;20.22;63.70;98669.53;4156704;28;20242;-52
2022/06/06 09:45:20;;;;;;;0.98;0.98;;;;;;;20.05;63.58;98674.03;4153528;28;20216;-52
2022/06/06 09:47:57;;;;;;;1.65;1.55;;;;;;;19.80;64.28;98677.25;4122726;28;20362;-54
2022/06/06 09:50:22;;;;;;;0.82;0.80;;;;;;;19.40;65.01;98689.06;4115459;28;20624;-52
2022/06/06 09:52:29;;;;;;;1.38;1.25;;;;;;;19.32;67.84;98692.53;4122028;28;20280;-51
2022/06/06 10:00:54;;;;;;;0.90;0.90;;;;;;;18.66;71.47;98683.53;4151031;28;20219;-51
2022/06/06 10:03:21;;;;;;;6.60;1.65;;;;;;;18.43;72.14;98681.59;4136342;28;20226;-51
2022/06/06 10:05:46;;;;;;;1.67;0.93;;;;;;;18.36;72.99;98689.44;4153224;28;20644;-52
2022/06/06 10:08:16;;;;;;;1.00;1.00;;;;;;;18.32;73.94;98689.22;4153307;28;20259;-51
2022/06/06 10:10:49;;;;;;;1.45;0.75;;;;;;;18.01;69.54;98684.28;4120013;28;20587;-51
2022/06/06 10:12:57;;;;;;;0.68;0.68;;;;;;;17.71;70.32;98679.88;4135280;28;20253;-51
2022/06/06 10:15:09;;;;;;;0.80;0.80;;;;;;;18.16;72.92;98684.09;4154248;28;20456;-53
2022/06/06 10:17:51;;;;;;;0.50;0.50;;;;;;;18.16;71.22;98687.72;4135122;28;20259;-54
2022/06/06 10:20:20;;;;;;;0.63;0.63;;;;;;;18.40;70.67;98668.34;4152797;28;20229;-54
2022/06/06 10:22:46;;;;;;;0.88;0.88;;;;;;;18.73;71.45;98667.34;4135494;28;20648;-54
2022/06/06 10:24:57;;;;;;;1.23;0.70;;;;;;;19.34;72.38;98668.06;4153651;28;20205;-53
2022/06/06 10:27:19;;;;;;;1.10;1.00;;;;;;;19.21;70.24;98663.28;4136073;28;20268;-54
2022/06/06 10:32:02;;;;;;;0.73;0.73;;;;;;;19.39;71.01;98665.22;4154104;28;20717;-54
2022/06/06 10:34:12;;;;;;;1.13;1.02;;;;;;;19.33;69.82;98661.72;4135517;28;20225;-53
2022/06/06 10:36:26;;;;;;;1.08;1.05;;;;;;;19.36;69.78;98655.56;4138930;28;20201;-54
2022/06/06 10:39:02;;;;;;;1.10;1.00;;;;;;;19.73;70.44;98649.06;4135547;28;20217;-54
2022/06/06 10:41:22;;;;;;;0.88;0.88;;;;;;;20.12;68.21;98657.78;4117689;28;20229;-53
2022/06/06 10:43:42;;;;;;;1.23;1.13;;;;;;;20.46;70.61;98655.41;4136679;28;20629;-55
2022/06/06 10:45:53;;;;;;;0.95;0.73;;;;;;;20.82;67.03;98654.31;4155934;28;20213;-54
2022/06/06 10:48:10;;;;;;;1.50;0.93;;;;;;;21.11;66.66;98656.75;4134995;28;20667;-55
2022/06/06 10:51:36;;;;;;;0.80;0.80;;;;;;;21.31;67.96;98659.84;4152969;28;20204;-55
2022/06/06 10:53:24;;;;;;;1.67;1.15;;;;;;;21.57;66.28;98662.84;4152003;28;20242;-54
2022/06/06 10:55:42;;;;;;;1.17;0.88;;;;;;;21.33;62.89;98662.31;4153913;28;20637;-53
2022/06/06 10:57:57;;;;;;;0.77;0.70;;;;;;;21.21;61.73;98659.28;4135329;28;20236;-55